createdAt,value
2022-08-09T00:00:50.347Z,15.02
2022-08-09T00:01:55.089Z,14.96
2022-08-09T00:02:51.491Z,15.02
2022-08-09T00:04:10.346Z,14.95
2022-08-09T00:05:00.778Z,14.89
2022-08-09T00:06:18.099Z,14.99
2022-08-09T00:06:50.236Z,14.97
2022-08-09T00:07:49.212Z,14.97
2022-08-09T00:08:49.963Z,14.93
2022-08-09T00:09:49.224Z,14.95
2022-08-09T00:10:49.202Z,14.93
2022-08-09T00:11:58.689Z,14.87
2022-08-09T00:12:52.458Z,14.85
2022-08-09T00:13:49.171Z,14.81
2022-08-09T00:14:49.190Z,14.78
2022-08-09T00:15:57.681Z,14.65
2022-08-09T00:16:50.141Z,14.70
2022-08-09T00:18:05.488Z,14.73
2022-08-09T00:18:50.121Z,14.77
2022-08-09T00:19:49.144Z,14.74
2022-08-09T00:20:49.986Z,14.70
2022-08-09T00:21:56.127Z,14.68
2022-08-09T00:22:50.129Z,14.66
2022-08-09T00:23:54.900Z,14.74
2022-08-09T00:24:50.103Z,14.69
2022-08-09T00:25:51.780Z,14.70
2022-08-09T00:26:49.056Z,14.66
2022-08-09T00:27:49.052Z,14.61
2022-08-09T00:28:52.573Z,14.61
2022-08-09T00:30:16.589Z,14.65
2022-08-09T00:30:50.024Z,14.58
2022-08-09T00:31:59.295Z,14.53
2022-08-09T00:32:50.013Z,14.48
2022-08-09T00:33:50.757Z,14.58
2022-08-09T00:34:52.324Z,14.50
2022-08-09T00:35:48.993Z,14.50
2022-08-09T00:36:49.288Z,14.48
2022-08-09T00:37:48.968Z,14.51
2022-08-09T00:38:50.652Z,14.43
2022-08-09T00:40:13.461Z,14.51
2022-08-09T00:40:52.919Z,14.53
2022-08-09T00:44:10.305Z,14.53
2022-08-09T00:44:13.716Z,14.48
2022-08-09T00:44:14.738Z,14.41
2022-08-09T00:44:49.945Z,14.44
2022-08-09T00:45:53.768Z,14.48
2022-08-09T00:46:57.672Z,14.40
2022-08-09T00:47:49.894Z,14.37
2022-08-09T00:48:49.491Z,14.37
2022-08-09T00:49:55.087Z,14.38
2022-08-09T00:50:52.378Z,14.40
2022-08-09T00:51:56.083Z,14.26
2022-08-09T00:52:49.905Z,14.41
2022-08-09T00:53:48.841Z,14.29
2022-08-09T00:54:48.894Z,14.26
2022-08-09T00:56:04.588Z,14.32
2022-08-09T00:56:49.827Z,14.22
2022-08-09T00:57:49.806Z,14.15
2022-08-09T00:58:49.059Z,14.14
2022-08-09T00:59:52.736Z,14.18
2022-08-09T01:00:48.820Z,14.11
2022-08-09T01:01:48.828Z,14.13
2022-08-09T01:02:48.765Z,14.04
2022-08-09T01:03:48.756Z,14.10
2022-08-09T01:04:48.780Z,14.15
2022-08-09T01:05:53.381Z,14.08
2022-08-09T01:06:54.274Z,14.07
2022-08-09T01:08:00.952Z,14.04
2022-08-09T01:08:51.582Z,14.08
2022-08-09T01:09:48.741Z,14.10
2022-08-09T01:10:51.141Z,14.10
2022-08-09T01:11:53.085Z,14.13
2022-08-09T01:12:50.774Z,14.13
2022-08-09T01:13:59.067Z,14.03
2022-08-09T01:14:52.562Z,14.13
2022-08-09T01:15:52.587Z,14.03
2022-08-09T01:16:49.225Z,14.15
2022-08-09T01:17:48.634Z,14.07
2022-08-09T01:19:04.398Z,14.10
2022-08-09T01:19:57.242Z,14.03
2022-08-09T01:20:49.642Z,13.96
2022-08-09T01:21:51.431Z,13.89
2022-08-09T01:22:51.208Z,13.97
2022-08-09T01:24:02.424Z,13.96
2022-08-09T01:24:52.080Z,14.03
2022-08-09T01:25:48.932Z,13.92
2022-08-09T01:26:52.999Z,13.93
2022-08-09T01:27:50.779Z,13.90
2022-08-09T01:28:48.885Z,13.97
2022-08-09T01:29:55.264Z,14.00
2022-08-09T01:30:51.594Z,13.93
2022-08-09T01:32:32.043Z,13.95
2022-08-09T01:32:49.511Z,13.93
2022-08-09T01:33:48.518Z,13.78
2022-08-09T01:34:48.890Z,13.89
2022-08-09T01:35:51.858Z,13.71
2022-08-09T01:36:48.483Z,13.75
2022-08-09T01:38:08.208Z,13.78
2022-08-09T01:38:49.463Z,13.75
2022-08-09T01:39:48.510Z,13.75
2022-08-09T01:40:53.004Z,13.70
2022-08-09T01:41:55.620Z,13.77
2022-08-09T01:42:49.431Z,13.68
2022-08-09T01:43:51.861Z,13.67
2022-08-09T01:44:48.418Z,13.60
2022-08-09T01:45:48.439Z,13.59
2022-08-09T01:46:48.412Z,13.59
2022-08-09T01:47:49.830Z,13.53
2022-08-09T01:48:48.393Z,13.60
2022-08-09T01:49:50.764Z,13.55
2022-08-09T01:50:55.140Z,13.52
2022-08-09T01:51:52.995Z,13.53
2022-08-09T01:52:48.349Z,13.56
2022-08-09T01:53:49.316Z,13.49
2022-08-09T01:54:49.338Z,13.55
2022-08-09T01:55:48.368Z,13.53
2022-08-09T01:56:51.828Z,13.56
2022-08-09T01:57:50.683Z,13.50
2022-08-09T01:58:49.099Z,13.47
2022-08-09T01:59:51.694Z,13.45
2022-08-09T02:00:50.556Z,13.49
2022-08-09T02:01:58.224Z,13.55
2022-08-09T02:02:49.273Z,13.60
2022-08-09T02:03:48.279Z,13.52
2022-08-09T02:04:48.248Z,13.59
2022-08-09T02:06:04.038Z,13.60
2022-08-09T02:06:58.824Z,13.68
2022-08-09T02:08:35.867Z,13.64
2022-08-09T02:08:58.915Z,13.53
2022-08-09T02:09:59.630Z,13.52
2022-08-09T02:10:50.872Z,13.53
2022-08-09T02:11:48.202Z,13.41
2022-08-09T02:12:48.199Z,13.35
2022-08-09T02:14:06.599Z,13.35
2022-08-09T02:14:51.544Z,13.21
2022-08-09T02:15:49.220Z,13.22
2022-08-09T02:17:00.043Z,13.29
2022-08-09T02:18:09.321Z,13.24
2022-08-09T02:18:49.138Z,13.27
2022-08-09T02:19:48.130Z,13.38
2022-08-09T02:20:48.150Z,13.38
2022-08-09T02:21:48.111Z,13.27
2022-08-09T02:22:49.100Z,13.26
2022-08-09T02:23:48.095Z,13.27
2022-08-09T02:24:51.719Z,13.16
2022-08-09T02:25:52.447Z,13.21
2022-08-09T02:26:48.066Z,13.18
2022-08-09T02:28:00.322Z,13.16
2022-08-09T02:28:49.045Z,13.21
2022-08-09T02:29:49.045Z,13.12
2022-08-09T02:30:48.039Z,13.05
2022-08-09T02:31:48.057Z,13.12
2022-08-09T02:32:48.017Z,13.13
2022-08-09T02:34:06.613Z,13.24
2022-08-09T02:34:51.908Z,13.22
2022-08-09T02:36:03.179Z,13.18
2022-08-09T02:36:49.011Z,13.09
2022-08-09T02:37:47.983Z,13.09
2022-08-09T02:38:48.968Z,13.09
2022-08-09T02:39:49.795Z,13.05
2022-08-09T02:40:48.028Z,13.13
2022-08-09T02:41:47.979Z,12.98
2022-08-09T02:42:51.175Z,13.12
2022-08-09T02:43:54.180Z,13.00
2022-08-09T02:44:48.920Z,13.09
2022-08-09T02:45:47.918Z,13.09
2022-08-09T02:46:47.926Z,13.09
2022-08-09T02:47:59.090Z,13.08
2022-08-09T02:48:51.006Z,13.08
2022-08-09T02:50:01.153Z,13.05
2022-08-09T02:50:53.028Z,13.06
2022-08-09T02:51:48.892Z,13.12
2022-08-09T02:52:48.583Z,13.05
2022-08-09T02:54:00.804Z,13.11
2022-08-09T02:54:54.650Z,13.05
2022-08-09T02:55:58.635Z,13.06
2022-08-09T02:56:51.715Z,12.94
2022-08-09T02:58:00.519Z,12.94
2022-08-09T02:58:48.795Z,12.94
2022-08-09T03:00:11.366Z,12.85
2022-08-09T03:00:57.984Z,12.88
2022-08-09T03:02:05.966Z,12.85
2022-08-09T03:02:58.639Z,12.87
2022-08-09T03:04:16.845Z,12.91
2022-08-09T03:04:50.997Z,12.82
2022-08-09T03:05:48.044Z,12.78
2022-08-09T03:06:49.238Z,12.73
2022-08-09T03:07:54.979Z,12.82
2022-08-09T03:08:49.169Z,12.65
2022-08-09T03:09:54.442Z,12.68
2022-08-09T03:10:50.928Z,12.79
2022-08-09T03:12:08.507Z,12.79
2022-08-09T03:12:51.847Z,12.82
2022-08-09T03:14:01.284Z,12.83
2022-08-09T03:14:48.663Z,12.69
2022-08-09T03:16:06.495Z,12.82
2022-08-09T03:16:48.674Z,12.65
2022-08-09T03:17:47.642Z,12.64
2022-08-09T03:18:50.671Z,12.63
2022-08-09T03:19:58.168Z,12.61
2022-08-09T03:20:48.612Z,12.65
2022-08-09T03:21:50.760Z,12.60
2022-08-09T03:22:56.995Z,12.60
2022-08-09T03:24:03.577Z,12.53
2022-08-09T03:24:51.820Z,12.53
2022-08-09T03:25:57.826Z,12.60
2022-08-09T03:26:48.607Z,12.60
2022-08-09T03:27:47.573Z,12.47
2022-08-09T03:28:47.557Z,12.53
2022-08-09T03:29:57.792Z,12.45
2022-08-09T03:30:49.008Z,12.33
2022-08-09T03:32:00.357Z,12.45
2022-08-09T03:32:48.526Z,12.46
2022-08-09T03:33:54.496Z,12.38
2022-08-09T03:34:48.509Z,12.42
2022-08-09T03:36:13.936Z,12.47
2022-08-09T03:36:59.387Z,12.39
2022-08-09T03:37:56.300Z,12.39
2022-08-09T03:38:48.478Z,12.35
2022-08-09T03:39:48.468Z,12.38
2022-08-09T03:40:48.482Z,12.33
2022-08-09T03:41:48.774Z,12.36
2022-08-09T03:42:47.443Z,12.30
2022-08-09T03:44:02.807Z,12.35
2022-08-09T03:44:48.430Z,12.36
2022-08-09T03:46:04.377Z,12.32
2022-08-09T03:46:48.446Z,12.32
2022-08-09T03:47:47.411Z,12.22
2022-08-09T03:48:51.836Z,12.25
2022-08-09T03:49:57.938Z,12.24
2022-08-09T03:50:48.532Z,12.27
2022-08-09T03:51:58.489Z,12.27
2022-08-09T03:52:48.358Z,12.28
2022-08-09T03:53:47.351Z,12.33
2022-08-09T03:54:47.345Z,12.32
2022-08-09T03:55:47.328Z,12.24
2022-08-09T03:56:47.369Z,12.30
2022-08-09T03:58:03.144Z,12.35
2022-08-09T03:58:48.307Z,12.32
2022-08-09T03:59:54.736Z,12.38
2022-08-09T04:00:48.337Z,12.33
2022-08-09T04:01:47.316Z,12.32
2022-08-09T04:02:47.284Z,12.24
2022-08-09T04:04:02.222Z,12.28
2022-08-09T04:04:48.252Z,12.33
2022-08-09T04:05:47.250Z,12.28
2022-08-09T04:06:49.165Z,12.33
2022-08-09T04:07:56.778Z,12.33
2022-08-09T04:08:48.227Z,12.45
2022-08-09T04:09:52.988Z,12.33
2022-08-09T04:10:49.802Z,12.40
2022-08-09T04:11:47.224Z,12.38
2022-08-09T04:12:47.411Z,12.35
2022-08-09T04:14:37.484Z,12.38
2022-08-09T04:15:00.694Z,12.42
2022-08-09T04:16:20.545Z,12.33
2022-08-09T04:16:48.186Z,12.35
2022-08-09T04:17:47.459Z,12.39
2022-08-09T04:18:47.148Z,12.51
2022-08-09T04:19:51.520Z,12.65
2022-08-09T04:20:48.147Z,12.82
2022-08-09T04:21:47.154Z,12.91
2022-08-09T04:22:47.118Z,12.90
2022-08-09T04:23:53.976Z,13.03
2022-08-09T04:24:48.095Z,13.16
2022-08-09T04:25:49.884Z,13.29
2022-08-09T04:26:48.106Z,13.26
2022-08-09T04:27:49.052Z,13.39
2022-08-09T04:28:47.082Z,13.46
2022-08-09T04:29:49.929Z,13.71
2022-08-09T04:30:47.039Z,13.83
2022-08-09T04:31:47.630Z,14.05
2022-08-09T04:32:47.106Z,14.08
2022-08-09T04:33:52.837Z,14.26
2022-08-09T04:34:54.323Z,14.30
2022-08-09T04:35:48.021Z,14.43
2022-08-09T04:36:50.440Z,14.66
2022-08-09T04:37:47.015Z,14.66
2022-08-09T04:38:46.992Z,14.84
2022-08-09T04:39:49.416Z,14.84
2022-08-09T04:40:46.961Z,14.88
2022-08-09T04:41:46.945Z,14.97
2022-08-09T04:42:51.972Z,15.18
2022-08-09T04:44:05.145Z,15.30
2022-08-09T04:44:49.302Z,15.22
2022-08-09T04:45:53.889Z,15.24
2022-08-09T04:46:58.243Z,15.40
2022-08-09T04:48:01.105Z,15.35
2022-08-09T04:48:50.467Z,15.27
2022-08-09T04:49:54.216Z,15.37
2022-08-09T04:50:50.067Z,15.46
2022-08-09T04:51:46.869Z,15.60
2022-08-09T04:52:46.891Z,15.83
2022-08-09T04:53:49.189Z,16.06
2022-08-09T04:54:47.836Z,16.13
2022-08-09T04:55:57.950Z,16.15
2022-08-09T04:56:47.834Z,16.13
2022-08-09T04:57:54.176Z,16.29
2022-08-09T04:58:47.804Z,16.39
2022-08-09T04:59:47.514Z,16.65
2022-08-09T05:00:46.791Z,16.62
2022-08-09T05:01:46.787Z,16.91
2022-08-09T05:02:52.009Z,17.05
2022-08-09T05:03:48.193Z,17.27
2022-08-09T05:04:47.759Z,17.38
2022-08-09T05:05:51.862Z,17.37
2022-08-09T05:06:50.592Z,17.23
2022-08-09T05:07:46.769Z,17.24
2022-08-09T05:08:48.035Z,17.29
2022-08-09T05:09:49.729Z,17.24
2022-08-09T05:10:46.711Z,17.20
2022-08-09T05:11:46.718Z,17.37
2022-08-09T05:12:46.731Z,17.57
2022-08-09T05:13:46.688Z,17.63
2022-08-09T05:14:46.681Z,17.79
2022-08-09T05:15:48.183Z,17.98
2022-08-09T05:16:58.872Z,18.05
2022-08-09T05:18:39.043Z,18.30
2022-08-09T05:18:58.685Z,18.41
2022-08-09T05:19:47.632Z,18.50
2022-08-09T05:20:47.623Z,18.35
2022-08-09T05:21:55.706Z,18.38
2022-08-09T05:23:54.201Z,18.37
2022-08-09T05:23:55.508Z,18.49
2022-08-09T05:24:47.730Z,18.70
2022-08-09T05:25:46.589Z,18.81
2022-08-09T05:26:47.814Z,18.80
2022-08-09T05:27:48.000Z,18.71
2022-08-09T05:28:46.561Z,18.68
2022-08-09T05:29:46.546Z,18.95
2022-08-09T05:30:47.977Z,18.99
2022-08-09T05:31:56.315Z,19.16
2022-08-09T05:32:50.610Z,19.12
2022-08-09T05:33:46.515Z,19.14
2022-08-09T05:34:46.510Z,18.99
2022-08-09T05:35:46.698Z,19.05
2022-08-09T05:36:46.918Z,18.86
2022-08-09T05:37:47.970Z,18.93
2022-08-09T05:38:46.971Z,19.23
2022-08-09T05:39:46.576Z,19.26
2022-08-09T05:40:50.397Z,19.24
2022-08-09T05:41:47.456Z,19.24
2022-08-09T05:42:46.475Z,19.51
2022-08-09T05:43:48.975Z,19.70
2022-08-09T05:44:50.497Z,19.78
2022-08-09T05:45:55.643Z,19.84
2022-08-09T05:46:47.411Z,19.74
2022-08-09T05:47:52.281Z,19.84
2022-08-09T05:48:48.629Z,19.89
2022-08-09T05:50:26.004Z,20.09
2022-08-09T05:50:51.189Z,20.24
2022-08-09T05:51:48.370Z,20.40
2022-08-09T05:52:53.419Z,20.63
2022-08-09T05:53:56.856Z,20.50
2022-08-09T05:54:49.191Z,20.43
2022-08-09T05:55:46.340Z,20.37
2022-08-09T05:56:55.285Z,20.93
2022-08-09T05:57:56.420Z,21.18
2022-08-09T05:58:47.315Z,21.15
2022-08-09T05:59:46.316Z,21.27
2022-08-09T06:00:46.302Z,21.55
2022-08-09T06:01:46.289Z,21.52
2022-08-09T06:02:46.812Z,21.35
2022-08-09T06:03:58.546Z,21.43
2022-08-09T06:04:47.260Z,21.55
2022-08-09T06:05:57.272Z,21.82
2022-08-09T06:06:49.977Z,21.55
2022-08-09T06:08:05.053Z,22.14
2022-08-09T06:08:52.568Z,22.25
2022-08-09T06:09:54.857Z,22.26
2022-08-09T06:10:47.219Z,22.58
2022-08-09T06:11:56.851Z,22.36
2022-08-09T06:12:50.494Z,22.38
2022-08-09T06:13:47.486Z,22.50
2022-08-09T06:14:46.186Z,22.73
2022-08-09T06:15:46.847Z,23.15
2022-08-09T06:16:52.508Z,23.36
2022-08-09T06:17:47.160Z,23.52
2022-08-09T06:18:46.188Z,23.96
2022-08-09T06:19:46.149Z,24.50
2022-08-09T06:20:49.913Z,24.51
2022-08-09T06:21:51.523Z,24.36
2022-08-09T06:22:47.126Z,24.28
2022-08-09T06:23:58.917Z,24.14
2022-08-09T06:24:47.104Z,23.92
2022-08-09T06:25:46.102Z,23.99
2022-08-09T06:26:46.086Z,23.77
2022-08-09T06:27:51.309Z,23.99
2022-08-09T06:28:47.150Z,24.02
2022-08-09T06:29:48.336Z,23.86
2022-08-09T06:30:47.059Z,23.10
2022-08-09T06:32:08.422Z,23.84
2022-08-09T06:32:59.762Z,24.23
2022-08-09T06:33:48.606Z,24.28
2022-08-09T06:34:49.037Z,23.93
2022-08-09T06:35:57.185Z,24.03
2022-08-09T06:36:46.990Z,24.48
2022-08-09T06:37:49.828Z,24.92
2022-08-09T06:38:50.125Z,25.08
2022-08-09T06:39:57.985Z,25.14
2022-08-09T06:40:47.016Z,24.77
2022-08-09T06:42:08.758Z,24.13
2022-08-09T06:42:47.016Z,23.73
2022-08-09T06:43:45.968Z,24.21
2022-08-09T06:44:45.940Z,24.78
2022-08-09T06:46:39.270Z,24.88
2022-08-09T06:46:46.912Z,24.88
2022-08-09T06:47:45.907Z,24.98
2022-08-09T06:48:45.925Z,25.03
2022-08-09T06:50:13.610Z,24.85
2022-08-09T06:50:46.868Z,25.07
2022-08-09T06:51:46.892Z,25.20
2022-08-09T06:52:47.214Z,25.04
2022-08-09T06:53:45.894Z,25.28
2022-08-09T06:54:45.847Z,25.03
2022-08-09T06:55:48.306Z,25.14
2022-08-09T06:56:46.387Z,25.19
2022-08-09T06:58:03.222Z,25.67
2022-08-09T07:00:54.357Z,24.76
2022-08-09T07:00:55.187Z,24.85
2022-08-09T07:00:58.664Z,25.53
2022-08-09T07:01:57.812Z,25.92
2022-08-09T07:02:46.903Z,25.95
2022-08-09T07:03:51.854Z,26.34
2022-08-09T07:04:46.761Z,26.10
2022-08-09T07:06:03.111Z,26.57
2022-08-09T07:06:46.771Z,26.22
2022-08-09T07:08:00.932Z,26.34
2022-08-09T07:08:49.557Z,26.38
2022-08-09T07:09:53.394Z,26.59
2022-08-09T07:10:46.713Z,27.05
2022-08-09T07:11:53.354Z,26.65
2022-08-09T07:12:47.062Z,26.81
2022-08-09T07:14:04.762Z,26.33
2022-08-09T07:14:51.361Z,25.77
2022-08-09T07:15:53.996Z,25.65
2022-08-09T07:16:49.755Z,25.23
2022-08-09T07:17:56.015Z,25.19
2022-08-09T07:18:47.357Z,25.75
2022-08-09T07:19:48.143Z,26.20
2022-08-09T07:20:47.707Z,25.88
2022-08-09T07:21:56.034Z,25.90
2022-08-09T07:22:53.188Z,26.86
2022-08-09T07:23:57.825Z,27.37
2022-08-09T07:24:49.622Z,27.44
2022-08-09T07:25:46.602Z,26.93
2022-08-09T07:26:45.605Z,26.99
2022-08-09T07:27:53.575Z,27.08
2022-08-09T07:29:07.857Z,27.07
2022-08-09T07:29:46.615Z,26.68
2022-08-09T07:30:45.567Z,26.85
2022-08-09T07:31:47.961Z,26.92
2022-08-09T07:32:46.050Z,26.93
2022-08-09T07:33:52.638Z,27.36
2022-08-09T07:34:46.563Z,27.60
2022-08-09T07:35:53.937Z,27.08
2022-08-09T07:36:47.355Z,26.56
2022-08-09T07:37:46.161Z,26.87
2022-08-09T07:38:52.588Z,27.67
2022-08-09T07:39:47.560Z,26.53
2022-08-09T07:40:54.104Z,27.17
2022-08-09T07:41:47.526Z,27.49
2022-08-09T07:42:45.475Z,28.09
2022-08-09T07:43:49.954Z,27.99
2022-08-09T07:44:51.693Z,28.57
2022-08-09T07:45:46.447Z,28.38
2022-08-09T07:46:45.470Z,29.05
2022-08-09T07:47:49.340Z,29.48
2022-08-09T07:48:46.429Z,30.14
2022-08-09T07:50:05.508Z,30.31
2022-08-09T07:50:52.842Z,29.91
2022-08-09T07:52:03.093Z,29.14
2022-08-09T07:52:46.389Z,29.01
2022-08-09T07:54:07.022Z,29.78
2022-08-09T07:54:51.594Z,29.48
2022-08-09T07:56:02.760Z,29.73
2022-08-09T07:56:49.644Z,29.51
2022-08-09T07:57:46.809Z,28.73
2022-08-09T07:58:47.351Z,27.85
2022-08-09T07:59:51.972Z,28.44
2022-08-09T08:00:56.189Z,28.67
2022-08-09T08:01:52.935Z,29.35
2022-08-09T08:02:47.859Z,29.88
2022-08-09T08:03:45.323Z,30.24
2022-08-09T08:04:49.027Z,30.05
2022-08-09T08:05:57.573Z,30.32
2022-08-09T08:06:56.192Z,30.54
2022-08-09T08:08:44.698Z,30.88
2022-08-09T08:09:03.480Z,31.34
2022-08-09T08:09:53.642Z,30.70
2022-08-09T08:10:48.677Z,30.44
2022-08-09T08:12:10.009Z,30.78
2022-08-09T08:12:46.453Z,30.67
2022-08-09T08:13:57.254Z,30.77
2022-08-09T08:14:46.258Z,30.99
2022-08-09T08:15:45.227Z,31.30
2022-08-09T08:17:00.349Z,30.21
2022-08-09T08:17:54.889Z,29.88
2022-08-09T08:18:46.317Z,29.87
2022-08-09T08:19:45.221Z,28.83
2022-08-09T08:20:45.191Z,29.41
2022-08-09T08:21:50.876Z,29.90
2022-08-09T08:22:48.491Z,29.42
2022-08-09T08:23:45.175Z,29.20
2022-08-09T08:24:49.172Z,29.39
2022-08-09T08:25:49.787Z,29.78
2022-08-09T08:26:56.093Z,30.25
2022-08-09T08:27:46.141Z,30.77
2022-08-09T08:28:45.245Z,30.77
2022-08-09T08:29:50.135Z,31.21
2022-08-09T08:30:46.781Z,31.62
2022-08-09T08:32:02.998Z,31.37
2022-08-09T08:32:53.478Z,31.63
2022-08-09T08:33:52.281Z,32.35
2022-08-09T08:34:46.612Z,32.82
2022-08-09T08:35:58.756Z,32.35
2022-08-09T08:36:46.079Z,31.11
2022-08-09T08:37:59.483Z,31.62
2022-08-09T08:38:46.060Z,32.23
2022-08-09T08:39:45.176Z,32.30
2022-08-09T08:40:45.059Z,32.30
2022-08-09T08:41:51.860Z,32.72
2022-08-09T08:42:47.428Z,32.68
2022-08-09T08:43:45.028Z,33.16
2022-08-09T08:44:46.278Z,33.08
2022-08-09T08:45:51.644Z,32.46
2022-08-09T08:47:02.516Z,32.19
2022-08-09T08:47:46.003Z,31.49
2022-08-09T08:48:51.152Z,29.92
2022-08-09T08:49:47.250Z,30.22
2022-08-09T08:50:45.419Z,30.75
2022-08-09T08:52:00.153Z,31.04
2022-08-09T08:52:57.769Z,31.74
2022-08-09T08:54:03.340Z,32.46
2022-08-09T08:54:45.986Z,32.42
2022-08-09T08:55:44.948Z,32.60
2022-08-09T08:56:44.958Z,32.90
2022-08-09T08:57:56.595Z,32.82
2022-08-09T08:58:46.584Z,33.09
2022-08-09T08:59:47.317Z,33.23
2022-08-09T09:00:45.935Z,33.89
2022-08-09T09:01:52.723Z,34.14
2022-08-09T09:02:50.000Z,33.89
2022-08-09T09:03:46.048Z,34.12
2022-08-09T09:04:52.517Z,34.14
2022-08-09T09:05:58.305Z,34.29
2022-08-09T09:06:46.256Z,33.01
2022-08-09T09:07:44.887Z,32.90
2022-08-09T09:08:44.869Z,32.72
2022-08-09T09:09:59.683Z,32.84
2022-08-09T09:10:45.861Z,33.18
2022-08-09T09:11:44.831Z,33.56
2022-08-09T09:12:44.829Z,33.99
2022-08-09T09:13:56.261Z,34.05
2022-08-09T09:14:45.810Z,34.07
2022-08-09T09:15:49.354Z,34.37
2022-08-09T09:16:44.829Z,33.71
2022-08-09T09:17:49.182Z,32.68
2022-08-09T09:18:51.876Z,32.90
2022-08-09T09:19:46.784Z,32.80
2022-08-09T09:20:44.804Z,32.00
2022-08-09T09:21:46.841Z,31.31
2022-08-09T09:22:44.759Z,30.40
2022-08-09T09:23:49.570Z,30.80
2022-08-09T09:24:45.746Z,31.63
2022-08-09T09:26:03.773Z,31.74
2022-08-09T09:26:45.767Z,31.91
2022-08-09T09:28:05.156Z,31.98
2022-08-09T09:29:04.419Z,32.53
2022-08-09T09:30:10.619Z,32.67
2022-08-09T09:30:47.402Z,32.80
2022-08-09T09:32:06.597Z,33.41
2022-08-09T09:32:45.698Z,32.42
2022-08-09T09:33:45.282Z,32.42
2022-08-09T09:34:44.826Z,32.25
2022-08-09T09:35:48.007Z,32.99
2022-08-09T09:36:54.345Z,33.40
2022-08-09T09:37:45.672Z,33.37
2022-08-09T09:38:44.659Z,33.23
2022-08-09T09:39:55.178Z,33.73
2022-08-09T09:40:46.350Z,33.65
2022-08-09T09:41:49.426Z,33.83
2022-08-09T09:42:46.236Z,34.44
2022-08-09T09:44:10.615Z,33.47
2022-08-09T09:44:45.610Z,34.10
2022-08-09T09:46:39.888Z,32.83
2022-08-09T09:46:52.444Z,32.62
2022-08-09T09:47:48.050Z,33.28
2022-08-09T09:48:45.614Z,33.65
2022-08-09T09:50:07.594Z,33.66
2022-08-09T09:50:50.949Z,33.36
2022-08-09T09:51:47.921Z,32.52
2022-08-09T09:52:53.705Z,32.19
2022-08-09T09:54:00.751Z,33.02
2022-08-09T09:54:48.563Z,33.58
2022-08-09T09:55:44.584Z,34.20
2022-08-09T09:58:01.681Z,34.70
2022-08-09T09:58:04.139Z,34.91
2022-08-09T09:58:45.532Z,33.78
2022-08-09T09:59:44.538Z,32.65
2022-08-09T10:00:55.330Z,32.37
2022-08-09T10:01:45.515Z,32.68
2022-08-09T10:02:44.506Z,32.57
2022-08-09T10:03:57.447Z,32.90
2022-08-09T10:04:45.483Z,33.23
2022-08-09T10:06:03.792Z,33.23
2022-08-09T10:06:46.993Z,32.79
2022-08-09T10:08:10.930Z,32.87
2022-08-09T10:08:54.867Z,33.17
2022-08-09T10:09:48.447Z,33.23
2022-08-09T10:10:45.490Z,32.95
2022-08-09T10:11:59.442Z,32.20
2022-08-09T10:12:51.799Z,31.53
2022-08-09T10:13:45.625Z,31.78
2022-08-09T10:14:48.824Z,31.81
2022-08-09T10:16:08.995Z,31.71
2022-08-09T10:16:56.665Z,32.52
2022-08-09T10:17:55.649Z,33.68
2022-08-09T10:18:51.200Z,34.79
2022-08-09T10:19:45.828Z,35.23
2022-08-09T10:20:44.727Z,35.86
2022-08-09T10:21:44.380Z,36.02
2022-08-09T10:22:44.772Z,35.01
2022-08-09T10:23:44.364Z,34.51
2022-08-09T10:24:44.355Z,34.99
2022-08-09T10:26:08.054Z,34.86
2022-08-09T10:26:46.784Z,34.78
2022-08-09T10:27:45.267Z,35.39
2022-08-09T10:28:49.121Z,36.39
2022-08-09T10:30:28.329Z,35.65
2022-08-09T10:32:13.630Z,34.11
2022-08-09T10:32:46.316Z,32.20
2022-08-09T10:34:08.451Z,32.79
2022-08-09T10:34:45.302Z,33.06
2022-08-09T10:35:44.318Z,33.52
2022-08-09T10:36:45.259Z,33.50
2022-08-09T10:37:44.272Z,34.10
2022-08-09T10:38:56.781Z,34.32
2022-08-09T10:39:49.298Z,33.80
2022-08-09T10:40:44.714Z,33.28
2022-08-09T10:41:45.255Z,32.84
2022-08-09T10:42:45.944Z,32.28
2022-08-09T10:43:47.049Z,32.95
2022-08-09T10:44:45.233Z,34.21
2022-08-09T10:45:58.524Z,35.09
2022-08-09T10:46:55.087Z,34.63
2022-08-09T10:48:26.518Z,34.22
2022-08-09T10:48:45.207Z,34.22
2022-08-09T10:49:51.360Z,34.77
2022-08-09T10:50:45.229Z,34.83
2022-08-09T10:51:44.185Z,34.21
2022-08-09T10:52:44.766Z,33.65
2022-08-09T10:53:46.809Z,33.80
2022-08-09T10:54:45.170Z,34.82
2022-08-09T10:55:58.046Z,35.53
2022-08-09T10:56:45.156Z,35.55
2022-08-09T10:57:44.143Z,35.79
2022-08-09T10:58:44.146Z,35.55
2022-08-09T10:59:57.787Z,35.79
2022-08-09T11:01:11.098Z,36.12
2022-08-09T11:03:13.976Z,36.17
2022-08-09T11:03:14.777Z,36.53
2022-08-09T11:03:50.760Z,36.86
2022-08-09T11:04:56.154Z,36.92
2022-08-09T11:06:00.095Z,36.44
2022-08-09T11:06:45.093Z,35.46
2022-08-09T11:07:56.611Z,33.44
2022-08-09T11:08:47.948Z,32.50
2022-08-09T11:09:48.304Z,32.49
2022-08-09T11:10:47.110Z,33.17
2022-08-09T11:11:51.923Z,32.79
2022-08-09T11:12:45.055Z,33.41
2022-08-09T11:13:51.064Z,33.17
2022-08-09T11:14:45.045Z,32.93
2022-08-09T11:16:04.879Z,33.98
2022-08-09T11:16:47.137Z,34.87
2022-08-09T11:17:44.019Z,35.34
2022-08-09T11:18:45.092Z,34.93
2022-08-09T11:20:12.026Z,34.96
2022-08-09T11:20:45.032Z,35.39
2022-08-09T11:21:43.999Z,35.87
2022-08-09T11:22:45.028Z,36.44
2022-08-09T11:23:46.334Z,36.90
2022-08-09T11:24:44.973Z,37.09
2022-08-09T11:25:48.002Z,37.26
2022-08-09T11:26:47.378Z,37.30
2022-08-09T11:28:03.692Z,35.20
2022-08-09T11:28:56.457Z,33.62
2022-08-09T11:30:06.485Z,33.37
2022-08-09T11:30:45.897Z,33.31
2022-08-09T11:31:48.844Z,33.55
2022-08-09T11:32:44.920Z,34.34
2022-08-09T11:33:43.956Z,35.13
2022-08-09T11:34:43.934Z,34.29
2022-08-09T11:35:49.310Z,33.49
2022-08-09T11:36:45.102Z,33.39
2022-08-09T11:37:43.896Z,33.99
2022-08-09T11:38:44.886Z,34.71
2022-08-09T11:39:44.930Z,33.98
2022-08-09T11:40:43.881Z,33.61
2022-08-09T11:41:44.130Z,33.76
2022-08-09T11:42:43.875Z,34.54
2022-08-09T11:43:43.887Z,34.32
2022-08-09T11:44:43.860Z,34.84
2022-08-09T11:45:43.861Z,35.20
2022-08-09T11:46:43.871Z,35.77
2022-08-09T11:47:44.835Z,36.19
2022-08-09T11:48:43.830Z,36.53
2022-08-09T11:50:53.985Z,36.95
2022-08-09T11:50:55.503Z,37.14
2022-08-09T11:53:01.014Z,36.90
2022-08-09T11:53:20.852Z,36.92
2022-08-09T11:53:59.385Z,35.82
2022-08-09T11:54:45.790Z,33.68
2022-08-09T11:55:52.103Z,32.50
2022-08-09T11:56:47.893Z,31.78
2022-08-09T11:58:00.102Z,31.06
2022-08-09T11:58:50.028Z,30.70
2022-08-09T11:59:44.762Z,30.97
2022-08-09T12:00:44.873Z,31.51
2022-08-09T12:02:17.866Z,32.57
2022-08-09T12:02:44.851Z,33.55
2022-08-09T12:03:57.311Z,33.96
2022-08-09T12:04:44.775Z,33.73
2022-08-09T12:05:47.034Z,34.45
2022-08-09T12:06:53.108Z,34.78
2022-08-09T12:07:44.717Z,35.31
2022-08-09T12:08:43.707Z,34.63
2022-08-09T12:09:44.024Z,33.92
2022-08-09T12:10:44.728Z,33.95
2022-08-09T12:12:02.459Z,33.87
2022-08-09T12:12:44.667Z,34.21
2022-08-09T12:14:10.258Z,34.08
2022-08-09T12:15:04.389Z,34.34
2022-08-09T12:15:48.718Z,34.59
2022-08-09T12:16:44.641Z,34.45
2022-08-09T12:17:47.830Z,34.64
2022-08-09T12:18:45.644Z,33.41
2022-08-09T12:19:44.634Z,33.63
2022-08-09T12:20:44.661Z,33.90
2022-08-09T12:21:50.104Z,34.14
2022-08-09T12:22:44.608Z,33.27
2022-08-09T12:23:56.254Z,33.80
2022-08-09T12:24:44.596Z,33.70
2022-08-09T12:25:49.509Z,34.11
2022-08-09T12:26:44.854Z,34.45
2022-08-09T12:29:11.490Z,34.52
2022-08-09T12:29:11.993Z,34.90
2022-08-09T12:29:53.148Z,34.58
2022-08-09T12:30:44.578Z,34.97
2022-08-09T12:32:02.258Z,33.63
2022-08-09T12:32:44.576Z,33.70
2022-08-09T12:33:58.407Z,33.56
2022-08-09T12:34:44.528Z,33.31
2022-08-09T12:35:43.550Z,32.84
2022-08-09T12:36:43.549Z,32.15
2022-08-09T12:37:44.018Z,32.37
2022-08-09T12:38:44.507Z,32.89
2022-08-09T12:39:43.566Z,33.20
2022-08-09T12:40:43.502Z,32.95
2022-08-09T12:41:43.577Z,33.20
2022-08-09T12:42:43.471Z,32.90
2022-08-09T12:44:06.526Z,33.33
2022-08-09T12:44:46.335Z,34.14
2022-08-09T12:46:09.449Z,35.02
2022-08-09T12:46:43.461Z,35.50
2022-08-09T12:47:50.430Z,35.53
2022-08-09T12:48:44.498Z,35.23
2022-08-09T12:49:51.286Z,35.08
2022-08-09T12:50:44.611Z,34.96
2022-08-09T12:52:01.540Z,34.84
2022-08-09T12:53:08.218Z,34.82
2022-08-09T12:53:44.889Z,34.84